Swift Ace — C6XB8 — position and weather

sailwx.info

Track history (hours):
 
Tides and Currents Weather Stations Pressure Air Temp Water Temp Dewpoint Dewpoint Depression Visibility Wind Speed Wind Dir Waves Ship Positions

Swift Ace

Last reported at 2014-Dec-16 19:21 UTC. Time now 2014-Dec-20 17:59 UTC.
Position S 29°21' E 031°57'.

Length 200 m; draft 8.3 m.

Type: Cargo ship. MMSI: 311004900.

Date/timePositionNaut miles runAvg speedWind from/ knotsBaromVisibWave heightAir tempDewpointWater temp
2014-Dec-16 19:21S 29°21' E 031°57'1012.5
2014-Dec-16 18:33S 29°28' E 031°50'1312.6
2014-Dec-16 17:33S 29°38' E 031°41'1312.6
2014-Dec-16 16:33S 29°48' E 031°32'1212.5
2014-Dec-16 15:33S 29°58' E 031°22'1312.8
2014-Dec-16 14:33S 30°08' E 031°14'1312.8
2014-Dec-16 13:33S 30°18' E 031°05'14714.5
2014-Dec-16 03:22S 32°09' E 029°11'114 3.7
2014-Dec-14 20:30S 33°27' E 027°33'3012.9
2014-Dec-14 18:13S 33°11' E 028°02'6115.1
2014-Dec-14 14:11S 32°28' E 028°54'16415.2
2014-Dec-14 03:23S 30°18' E 030°52'1113.1
2014-Dec-14 02:33S 30°09' E 030°59'1313.3
2014-Dec-14 01:34S 29°57' E 031°06'6 5.8
2014-Dec-14 00:34S 29°52' E 031°02'1 0.6
2014-Dec-13 23:30S 29°52' E 031°02'0 0.0
2014-Dec-13 22:30S 29°52' E 031°02'0 0.0
2014-Dec-13 21:24S 29°52' E 031°02'0 0.0
2014-Dec-13 20:30S 29°52' E 031°02'0 0.0
2014-Dec-13 19:24S 29°52' E 031°02'0 0.0
2014-Dec-13 18:30S 29°52' E 031°02'0 0.0
2014-Dec-13 17:30S 29°52' E 031°02'0 0.0
2014-Dec-13 16:30S 29°52' E 031°02'0 0.0
2014-Dec-13 15:30S 29°52' E 031°02'0 0.0
2014-Dec-13 14:30S 29°52' E 031°02'0 0.0
2014-Dec-13 13:30S 29°52' E 031°02'0 0.0
2014-Dec-13 12:30S 29°52' E 031°02'0 0.0
2014-Dec-13 11:30S 29°52' E 031°02'0 0.0
2014-Dec-13 10:30S 29°52' E 031°02'0 0.0
2014-Dec-13 09:24S 29°52' E 031°02'1 1.5
2014-Dec-13 08:33S 29°52' E 031°03'9 9.2
2014-Dec-13 07:33S 29°47' E 031°11'1010.0
2014-Dec-13 06:33S 29°41' E 031°21'5 5.0
2014-Dec-13 05:33S 29°38' E 031°26'2 2.2
2014-Dec-13 04:33S 29°41' E 031°26'3 2.5
2014-Dec-13 03:33S 29°39' E 031°28'6 6.2
2014-Dec-13 02:33S 29°34' E 031°32'6 6.1
2014-Dec-13 01:33S 29°30' E 031°37'7 6.5
2014-Dec-13 00:33S 29°26' E 031°43'6 6.0
2014-Dec-12 23:33S 29°22' E 031°48'10 7.1
2014-Dec-12 22:07S 29°23' E 032°00'  
Track history (hours):
 
Tides and Currents Weather Stations Pressure Air Temp Water Temp Dewpoint Dewpoint Depression Visibility Wind Speed Wind Dir Waves Ship Positions

Swift Ace

Last reported at 2014-Dec-16 19:21 UTC. Time now 2014-Dec-20 17:59 UTC.
Position S 29°21' E 031°57'.

Length 200 m; draft 8.3 m.

Type: Cargo ship. MMSI: 311004900.

Date/timePositionNaut miles runAvg speedWind from/ knotsBaromVisibWave heightAir tempDewpointWater temp
2014-Dec-16 19:21S 29°21' E 031°57'1012.5
2014-Dec-16 18:33S 29°28' E 031°50'1312.6
2014-Dec-16 17:33S 29°38' E 031°41'1312.6
2014-Dec-16 16:33S 29°48' E 031°32'1212.5
2014-Dec-16 15:33S 29°58' E 031°22'1312.8
2014-Dec-16 14:33S 30°08' E 031°14'1312.8
2014-Dec-16 13:33S 30°18' E 031°05'14714.5
2014-Dec-16 03:22S 32°09' E 029°11'114 3.7
2014-Dec-14 20:30S 33°27' E 027°33'3012.9
2014-Dec-14 18:13S 33°11' E 028°02'6115.1
2014-Dec-14 14:11S 32°28' E 028°54'16415.2
2014-Dec-14 03:23S 30°18' E 030°52'1113.1
2014-Dec-14 02:33S 30°09' E 030°59'1313.3
2014-Dec-14 01:34S 29°57' E 031°06'6 5.8
2014-Dec-14 00:34S 29°52' E 031°02'1 0.6
2014-Dec-13 23:30S 29°52' E 031°02'0 0.0
2014-Dec-13 22:30S 29°52' E 031°02'0 0.0
2014-Dec-13 21:24S 29°52' E 031°02'0 0.0
2014-Dec-13 20:30S 29°52' E 031°02'0 0.0
2014-Dec-13 19:24S 29°52' E 031°02'0 0.0
2014-Dec-13 18:30S 29°52' E 031°02'0 0.0
2014-Dec-13 17:30S 29°52' E 031°02'0 0.0
2014-Dec-13 16:30S 29°52' E 031°02'0 0.0
2014-Dec-13 15:30S 29°52' E 031°02'0 0.0
2014-Dec-13 14:30S 29°52' E 031°02'0 0.0
2014-Dec-13 13:30S 29°52' E 031°02'0 0.0
2014-Dec-13 12:30S 29°52' E 031°02'0 0.0
2014-Dec-13 11:30S 29°52' E 031°02'0 0.0
2014-Dec-13 10:30S 29°52' E 031°02'0 0.0
2014-Dec-13 09:24S 29°52' E 031°02'1 1.5
2014-Dec-13 08:33S 29°52' E 031°03'9 9.2
2014-Dec-13 07:33S 29°47' E 031°11'1010.0
2014-Dec-13 06:33S 29°41' E 031°21'5 5.0
2014-Dec-13 05:33S 29°38' E 031°26'2 2.2
2014-Dec-13 04:33S 29°41' E 031°26'3 2.5
2014-Dec-13 03:33S 29°39' E 031°28'6 6.2
2014-Dec-13 02:33S 29°34' E 031°32'6 6.1
2014-Dec-13 01:33S 29°30' E 031°37'7 6.5
2014-Dec-13 00:33S 29°26' E 031°43'6 6.0
2014-Dec-12 23:33S 29°22' E 031°48'10 7.1
2014-Dec-12 22:07S 29°23' E 032°00'  

Dump ship's entire track history